TAF SKCC
SKCC 082230Z 0900/0924 VRB02KT 9999 SCT023 TEMPO 0914/0916 RADZ SCT017TCU BECMG 0916/0918 36010KT TX32/0918Z TN22/0910Z=
METAR SKCC
SKCC 080500Z VRB02KT 9999 SCT018 25/24 Q1013 RMK A2993=
SKCC 080000Z VRB02KT 9999 SCT020 SCT080 28/22 Q1013 RMK A2991=
SKCC 062300Z 33006KT 9999 SCT023 28/22 Q1012 RMK A2990=
SKCC 060200Z VRB02KT 9999 SCT018 SCT090 27/23 Q1014 RMK A2995=
SKCC 060100Z VRB02KT 9999 SCT018 SCT090 27/22 Q1013 RMK A2993=
WC SKCC
WS SKCC
WV SKCC